createdAt,value
2019-02-18T00:00:49.589Z,48.75
2019-02-18T00:01:29.425Z,48.05
2019-02-18T00:02:07.336Z,57.78
2019-02-18T00:02:45.326Z,52.15
2019-02-18T00:03:23.437Z,65.47
2019-02-18T00:04:00.815Z,57.23
2019-02-18T00:04:38.204Z,46.65
2019-02-18T00:05:16.252Z,57.48
2019-02-18T00:05:53.735Z,50.67
2019-02-18T00:06:32.166Z,52.25
2019-02-18T00:07:14.475Z,59.48
2019-02-18T00:07:48.528Z,61.15
2019-02-18T00:08:26.428Z,51.23
2019-02-18T00:09:05.307Z,45.65
2019-02-18T00:09:42.737Z,45.85
2019-02-18T00:10:20.347Z,46.37
2019-02-18T00:10:58.169Z,46.80
2019-02-18T00:11:35.947Z,52.33
2019-02-18T00:12:13.723Z,53.68
2019-02-18T00:12:51.215Z,53.58
2019-02-18T00:13:28.894Z,52.65
2019-02-18T00:14:06.375Z,47.40
2019-02-18T00:14:44.164Z,55.23
2019-02-18T00:15:21.554Z,54.33
2019-02-18T00:15:59.154Z,50.00
2019-02-18T00:16:36.288Z,67.45
2019-02-18T00:17:13.727Z,57.93
2019-02-18T00:17:51.362Z,59.25
2019-02-18T00:18:29.067Z,59.35
2019-02-18T00:19:07.057Z,46.75
2019-02-18T00:19:44.097Z,55.88
2019-02-18T00:20:21.567Z,53.65
2019-02-18T00:20:58.874Z,52.05
2019-02-18T00:21:36.777Z,53.25
2019-02-18T00:22:14.452Z,53.83
2019-02-18T00:22:52.210Z,50.30
2019-02-18T00:23:30.040Z,57.80
2019-02-18T00:24:07.777Z,50.45
2019-02-18T00:24:47.617Z,52.98
2019-02-18T00:25:25.605Z,56.25
2019-02-18T00:26:03.151Z,58.40
2019-02-18T00:26:40.879Z,56.45
2019-02-18T00:27:18.645Z,56.80
2019-02-18T00:27:56.258Z,52.43
2019-02-18T00:28:36.815Z,59.83
2019-02-18T00:29:13.625Z,52.00
2019-02-18T00:29:51.529Z,58.70
2019-02-18T00:30:29.131Z,62.25
2019-02-18T00:31:06.835Z,61.73
2019-02-18T00:31:44.190Z,67.72
2019-02-18T00:32:21.456Z,57.50
2019-02-18T00:32:58.533Z,56.28
2019-02-18T00:33:35.991Z,58.92
2019-02-18T00:34:13.571Z,59.35
2019-02-18T00:34:50.991Z,59.23
2019-02-18T00:35:27.671Z,63.20
2019-02-18T00:36:05.354Z,49.75
2019-02-18T00:36:42.790Z,49.83
2019-02-18T00:37:24.509Z,62.83
2019-02-18T00:37:59.711Z,59.53
2019-02-18T00:38:37.342Z,59.25
2019-02-18T00:39:14.751Z,77.32
2019-02-18T00:39:52.871Z,57.40
2019-02-18T00:40:30.489Z,68.52
2019-02-18T00:41:07.937Z,51.63
2019-02-18T00:41:45.347Z,55.45
2019-02-18T00:42:23.613Z,61.23
2019-02-18T00:43:01.041Z,48.50
2019-02-18T00:43:39.101Z,58.70
2019-02-18T00:44:16.756Z,59.60
2019-02-18T00:44:54.740Z,57.78
2019-02-18T00:45:33.251Z,59.85
2019-02-18T00:46:11.336Z,60.55
2019-02-18T00:46:48.931Z,62.58
2019-02-18T00:47:26.581Z,54.55
2019-02-18T00:48:04.468Z,63.92
2019-02-18T00:48:42.139Z,54.05
2019-02-18T00:49:19.894Z,59.55
2019-02-18T00:49:57.112Z,65.17
2019-02-18T00:50:34.885Z,55.33
2019-02-18T00:51:12.503Z,64.58
2019-02-18T00:51:49.847Z,62.40
2019-02-18T00:52:28.251Z,58.80
2019-02-18T00:53:05.743Z,56.50
2019-02-18T00:53:43.748Z,59.60
2019-02-18T00:54:21.500Z,59.25
2019-02-18T00:54:59.501Z,62.40
2019-02-18T00:55:37.414Z,64.50
2019-02-18T00:56:15.380Z,51.98
2019-02-18T00:56:53.260Z,59.20
2019-02-18T00:57:30.691Z,63.63
2019-02-18T00:58:08.039Z,61.13
2019-02-18T00:58:45.805Z,57.05
2019-02-18T00:59:23.763Z,58.98
2019-02-18T01:00:01.361Z,65.52
2019-02-18T01:00:39.337Z,54.53
2019-02-18T01:01:16.969Z,55.85
2019-02-18T01:01:54.732Z,55.78
2019-02-18T01:02:32.969Z,59.30
2019-02-18T01:03:11.043Z,64.12
2019-02-18T01:03:48.636Z,58.40
2019-02-18T01:04:26.443Z,54.70
2019-02-18T01:05:04.349Z,57.78
2019-02-18T01:05:41.889Z,61.77
2019-02-18T01:06:19.834Z,59.48
2019-02-18T01:06:57.243Z,58.33
2019-02-18T01:07:35.347Z,54.18
2019-02-18T01:08:13.219Z,65.35
2019-02-18T01:08:50.703Z,61.77
2019-02-18T01:09:28.295Z,69.90
2019-02-18T01:10:06.973Z,58.83
2019-02-18T01:10:44.965Z,66.02
2019-02-18T01:11:23.089Z,73.20
2019-02-18T01:12:00.867Z,64.37
2019-02-18T01:12:38.429Z,68.22
2019-02-18T01:13:16.135Z,63.78
2019-02-18T01:13:53.896Z,71.62
2019-02-18T01:14:31.625Z,68.60
2019-02-18T01:15:10.541Z,63.20
2019-02-18T01:15:48.388Z,66.05
2019-02-18T01:16:25.773Z,67.40
2019-02-18T01:17:03.509Z,62.15
2019-02-18T01:17:41.647Z,65.00
2019-02-18T01:18:18.472Z,62.50
2019-02-18T01:18:56.360Z,62.17
2019-02-18T01:19:34.110Z,68.62
2019-02-18T01:20:12.067Z,63.50
2019-02-18T01:20:50.103Z,68.92
2019-02-18T01:21:27.774Z,62.67
2019-02-18T01:22:05.681Z,73.37
2019-02-18T01:22:43.825Z,55.98
2019-02-18T01:23:21.303Z,64.72
2019-02-18T01:23:58.990Z,77.80
2019-02-18T01:24:36.999Z,67.47
2019-02-18T01:25:14.729Z,58.55
2019-02-18T01:25:52.564Z,62.13
2019-02-18T01:26:30.123Z,66.02
2019-02-18T01:27:07.485Z,61.77
2019-02-18T01:27:45.189Z,62.35
2019-02-18T01:28:22.760Z,71.82
2019-02-18T01:29:01.832Z,62.27
2019-02-18T01:29:39.203Z,68.28
2019-02-18T01:30:17.287Z,63.33
2019-02-18T01:30:55.361Z,60.30
2019-02-18T01:31:33.541Z,68.10
2019-02-18T01:32:11.219Z,66.10
2019-02-18T01:32:48.697Z,61.23
2019-02-18T01:33:25.877Z,72.90
2019-02-18T01:34:03.167Z,67.85
2019-02-18T01:34:41.141Z,62.93
2019-02-18T01:35:18.575Z,63.70
2019-02-18T01:35:56.831Z,65.95
2019-02-18T01:36:34.899Z,64.65
2019-02-18T01:37:12.861Z,69.53
2019-02-18T01:37:50.677Z,70.32
2019-02-18T01:38:31.535Z,74.22
2019-02-18T01:39:09.202Z,65.78
2019-02-18T01:39:47.006Z,68.50
2019-02-18T01:40:24.731Z,65.28
2019-02-18T01:41:02.928Z,71.35
2019-02-18T01:41:40.672Z,69.55
2019-02-18T01:42:18.149Z,65.62
2019-02-18T01:42:55.843Z,63.92
2019-02-18T01:43:33.407Z,67.58
2019-02-18T01:44:11.427Z,68.45
2019-02-18T01:44:49.611Z,73.45
2019-02-18T01:45:27.123Z,64.42
2019-02-18T01:46:05.104Z,64.65
2019-02-18T01:46:42.483Z,67.10
2019-02-18T01:47:20.447Z,61.25
2019-02-18T01:47:57.751Z,63.15
2019-02-18T01:48:35.515Z,58.58
2019-02-18T01:49:13.089Z,62.40
2019-02-18T01:49:50.445Z,74.03
2019-02-18T01:50:28.463Z,80.50
2019-02-18T01:51:05.525Z,70.12
2019-02-18T01:51:43.207Z,75.00
2019-02-18T01:52:21.285Z,68.62
2019-02-18T01:52:58.993Z,63.85
2019-02-18T01:53:36.761Z,59.60
2019-02-18T01:54:14.479Z,70.03
2019-02-18T01:54:51.937Z,71.15
2019-02-18T01:55:29.962Z,65.92
2019-02-18T01:56:07.311Z,68.87
2019-02-18T01:56:44.971Z,71.57
2019-02-18T01:57:22.719Z,69.92
2019-02-18T01:58:00.659Z,75.80
2019-02-18T01:58:38.643Z,69.30
2019-02-18T01:59:16.114Z,71.20
2019-02-18T01:59:53.886Z,64.97
2019-02-18T02:00:31.389Z,70.45
2019-02-18T02:01:09.494Z,69.87
2019-02-18T02:01:46.859Z,70.92
2019-02-18T02:02:25.109Z,73.28
2019-02-18T02:03:05.489Z,72.37
2019-02-18T02:03:43.497Z,68.62
2019-02-18T02:04:20.957Z,67.10
2019-02-18T02:04:59.072Z,71.17
2019-02-18T02:05:37.139Z,60.48
2019-02-18T02:06:14.933Z,66.00
2019-02-18T02:06:52.851Z,66.67
2019-02-18T02:07:30.905Z,67.22
2019-02-18T02:08:08.600Z,62.08
2019-02-18T02:08:45.993Z,61.77
2019-02-18T02:09:23.087Z,62.73
2019-02-18T02:10:00.767Z,63.63
2019-02-18T02:10:38.129Z,79.12
2019-02-18T02:11:16.037Z,69.80
2019-02-18T02:11:53.496Z,69.92
2019-02-18T02:12:31.195Z,69.87
2019-02-18T02:13:35.867Z,67.45
2019-02-18T02:14:13.567Z,61.53
2019-02-18T02:14:50.925Z,77.30
2019-02-18T02:15:28.035Z,65.20
2019-02-18T02:16:10.814Z,61.00
2019-02-18T02:16:48.280Z,67.72
2019-02-18T02:17:26.305Z,64.58
2019-02-18T02:18:03.752Z,67.37
2019-02-18T02:18:41.225Z,74.75
2019-02-18T02:19:18.343Z,72.15
2019-02-18T02:19:56.315Z,70.78
2019-02-18T02:20:35.345Z,77.37
2019-02-18T02:21:13.235Z,72.55
2019-02-18T02:21:50.868Z,65.28
2019-02-18T02:22:28.703Z,77.42
2019-02-18T02:23:06.474Z,67.42
2019-02-18T02:23:44.025Z,76.92
2019-02-18T02:24:21.809Z,76.57
2019-02-18T02:24:58.866Z,65.00
2019-02-18T02:25:36.913Z,75.00
2019-02-18T02:26:14.055Z,73.42
2019-02-18T02:26:51.415Z,68.30
2019-02-18T02:27:29.429Z,68.87
2019-02-18T02:28:07.343Z,67.92
2019-02-18T02:28:44.991Z,60.85
2019-02-18T02:29:22.896Z,69.00
2019-02-18T02:30:00.652Z,63.45
2019-02-18T02:30:38.693Z,76.50
2019-02-18T02:31:16.333Z,66.65
2019-02-18T02:31:53.802Z,75.35
2019-02-18T02:32:31.523Z,71.72
2019-02-18T02:33:08.766Z,67.92
2019-02-18T02:33:46.771Z,70.10
2019-02-18T02:34:24.457Z,58.13
2019-02-18T02:35:02.361Z,61.20
2019-02-18T02:35:40.112Z,68.95
2019-02-18T02:36:18.135Z,72.58
2019-02-18T02:36:56.115Z,73.87
2019-02-18T02:37:34.132Z,71.57
2019-02-18T02:38:14.143Z,64.40
2019-02-18T02:38:52.017Z,82.08
2019-02-18T02:39:29.959Z,69.55
2019-02-18T02:40:08.950Z,68.72
2019-02-18T02:40:46.906Z,67.30
2019-02-18T02:41:24.570Z,71.42
2019-02-18T02:42:01.656Z,67.37
2019-02-18T02:42:39.697Z,73.83
2019-02-18T02:43:17.689Z,69.97
2019-02-18T02:43:55.376Z,78.72
2019-02-18T02:44:51.639Z,71.07
2019-02-18T02:45:29.329Z,71.55
2019-02-18T02:46:07.345Z,68.20
2019-02-18T02:46:45.223Z,74.67
2019-02-18T02:47:22.531Z,70.97
2019-02-18T02:48:00.300Z,68.37
2019-02-18T02:48:38.051Z,81.97
2019-02-18T02:49:15.737Z,62.15
2019-02-18T02:49:53.465Z,77.25
2019-02-18T02:50:31.253Z,72.25
2019-02-18T02:51:08.692Z,67.90
2019-02-18T02:51:46.291Z,73.95
2019-02-18T02:52:24.232Z,63.73
2019-02-18T02:53:01.965Z,74.92
2019-02-18T02:53:39.462Z,71.30
2019-02-18T02:54:17.490Z,73.35
2019-02-18T02:54:55.197Z,63.65
2019-02-18T02:55:32.935Z,71.40
2019-02-18T02:56:10.567Z,63.30
2019-02-18T02:56:48.283Z,65.28
2019-02-18T02:57:26.248Z,68.57
2019-02-18T02:58:04.463Z,67.15
2019-02-18T02:58:42.441Z,67.47
2019-02-18T02:59:20.015Z,80.75
2019-02-18T02:59:57.714Z,64.75
2019-02-18T03:00:35.444Z,73.95
2019-02-18T03:01:13.082Z,71.72
2019-02-18T03:01:50.757Z,76.70
2019-02-18T03:02:28.523Z,68.80
2019-02-18T03:03:06.335Z,68.75
2019-02-18T03:03:44.027Z,84.40
2019-02-18T03:04:21.413Z,71.45
2019-02-18T03:04:59.369Z,75.03
2019-02-18T03:05:36.973Z,69.32
2019-02-18T03:06:14.434Z,57.60
2019-02-18T03:06:52.195Z,69.90
2019-02-18T03:07:30.273Z,65.92
2019-02-18T03:08:19.489Z,62.90
2019-02-18T03:08:47.405Z,73.50
2019-02-18T03:09:25.542Z,78.47
2019-02-18T03:10:02.980Z,70.32
2019-02-18T03:10:40.990Z,69.00
2019-02-18T03:11:18.549Z,70.42
2019-02-18T03:11:55.612Z,63.70
2019-02-18T03:12:33.756Z,77.97
2019-02-18T03:13:11.201Z,69.58
2019-02-18T03:13:50.385Z,69.10
2019-02-18T03:14:27.796Z,64.62
2019-02-18T03:15:06.375Z,77.45
2019-02-18T03:15:44.120Z,69.70
2019-02-18T03:16:21.471Z,63.87
2019-02-18T03:16:58.836Z,83.78
2019-02-18T03:17:35.829Z,76.82
2019-02-18T03:18:13.495Z,70.10
2019-02-18T03:18:50.451Z,80.05
2019-02-18T03:19:27.815Z,66.15
2019-02-18T03:20:05.342Z,77.37
2019-02-18T03:20:43.301Z,72.82
2019-02-18T03:21:20.675Z,66.87
2019-02-18T03:21:58.048Z,70.52
2019-02-18T03:22:35.390Z,71.20
2019-02-18T03:23:12.975Z,66.72
2019-02-18T03:23:49.979Z,65.55
2019-02-18T03:24:27.975Z,77.78
2019-02-18T03:25:18.879Z,73.97
2019-02-18T03:25:56.222Z,80.12
2019-02-18T03:26:34.117Z,73.15
2019-02-18T03:27:12.073Z,67.27
2019-02-18T03:27:50.480Z,74.03
2019-02-18T03:28:46.452Z,78.50
2019-02-18T03:30:16.228Z,65.15
2019-02-18T03:31:06.403Z,66.60
2019-02-18T03:31:43.784Z,81.35
2019-02-18T03:32:21.727Z,71.20
2019-02-18T03:32:59.585Z,74.30
2019-02-18T03:33:45.298Z,78.45
2019-02-18T03:34:33.460Z,78.05
2019-02-18T03:35:11.151Z,74.25
2019-02-18T03:35:49.340Z,74.72
2019-02-18T03:36:26.307Z,68.47
2019-02-18T03:37:04.309Z,71.25
2019-02-18T03:37:42.236Z,71.87
2019-02-18T03:38:30.842Z,76.47
2019-02-18T03:38:59.516Z,80.57
2019-02-18T03:39:37.493Z,71.40
2019-02-18T03:40:15.479Z,77.15
2019-02-18T03:41:02.778Z,75.25
2019-02-18T03:41:32.558Z,76.33
2019-02-18T03:42:09.878Z,83.10
2019-02-18T03:42:47.136Z,73.35
2019-02-18T03:43:25.216Z,77.37
2019-02-18T03:44:03.010Z,82.15
2019-02-18T03:44:40.695Z,75.62
2019-02-18T03:45:17.952Z,71.20
2019-02-18T03:45:55.240Z,78.12
2019-02-18T03:46:33.147Z,79.55
2019-02-18T03:47:10.910Z,85.80
2019-02-18T03:47:48.384Z,71.53
2019-02-18T03:48:26.340Z,71.67
2019-02-18T03:49:04.501Z,78.67
2019-02-18T03:49:42.560Z,71.37
2019-02-18T03:50:20.674Z,76.17
2019-02-18T03:50:58.341Z,72.15
2019-02-18T03:51:38.083Z,73.65
2019-02-18T03:52:15.559Z,69.60
2019-02-18T03:52:53.560Z,73.87
2019-02-18T03:53:30.677Z,73.70
2019-02-18T03:54:09.144Z,76.42
2019-02-18T03:54:46.211Z,75.80
2019-02-18T03:55:24.202Z,78.37
2019-02-18T03:56:01.966Z,75.92
2019-02-18T03:56:40.080Z,76.62
2019-02-18T03:57:17.844Z,74.75
2019-02-18T03:57:55.660Z,77.95
2019-02-18T03:58:33.469Z,71.67
2019-02-18T03:59:10.899Z,73.05
2019-02-18T03:59:48.974Z,80.60
2019-02-18T04:00:26.706Z,80.97
2019-02-18T04:01:03.510Z,77.40
2019-02-18T04:01:41.040Z,75.32
2019-02-18T04:02:19.031Z,75.83
2019-02-18T04:02:56.100Z,76.25
2019-02-18T04:03:33.957Z,80.40
2019-02-18T04:04:11.640Z,82.82
2019-02-18T04:04:49.643Z,83.58
2019-02-18T04:05:27.321Z,75.80
2019-02-18T04:06:05.231Z,73.22
2019-02-18T04:06:43.072Z,75.37
2019-02-18T04:07:21.100Z,84.80
2019-02-18T04:07:58.922Z,73.28
2019-02-18T04:08:43.095Z,76.37
2019-02-18T04:09:15.415Z,83.22
2019-02-18T04:09:52.234Z,72.60
2019-02-18T04:10:29.961Z,79.95
2019-02-18T04:11:07.609Z,81.47
2019-02-18T04:11:45.028Z,81.97
2019-02-18T04:12:23.073Z,75.15
2019-02-18T04:13:00.784Z,80.47
2019-02-18T04:13:38.869Z,72.00
2019-02-18T04:14:16.463Z,77.40
2019-02-18T04:14:53.906Z,74.30
2019-02-18T04:15:31.657Z,81.87
2019-02-18T04:16:09.160Z,78.47
2019-02-18T04:16:46.471Z,72.32
2019-02-18T04:17:24.848Z,83.75
2019-02-18T04:18:02.735Z,76.97
2019-02-18T04:18:39.960Z,86.87
2019-02-18T04:19:20.908Z,77.00
2019-02-18T04:19:58.842Z,77.32
2019-02-18T04:20:36.531Z,74.95
2019-02-18T04:21:13.534Z,65.72
2019-02-18T04:21:51.192Z,78.97
2019-02-18T04:22:28.669Z,79.72
2019-02-18T04:23:06.752Z,80.80
2019-02-18T04:23:44.490Z,79.60
2019-02-18T04:24:21.912Z,79.05
2019-02-18T04:24:59.577Z,76.05
2019-02-18T04:25:37.391Z,77.67
2019-02-18T04:26:14.859Z,77.67
2019-02-18T04:26:53.220Z,70.95
2019-02-18T04:27:31.019Z,73.30
2019-02-18T04:28:08.172Z,71.00
2019-02-18T04:28:45.904Z,74.72
2019-02-18T04:29:23.230Z,79.92
2019-02-18T04:30:00.657Z,79.60
2019-02-18T04:30:38.444Z,74.27
2019-02-18T04:31:15.954Z,69.85
2019-02-18T04:31:53.500Z,79.65
2019-02-18T04:32:30.778Z,78.97
2019-02-18T04:33:08.772Z,81.60
2019-02-18T04:33:45.730Z,81.97
2019-02-18T04:34:23.474Z,68.60
2019-02-18T04:35:00.898Z,73.60
2019-02-18T04:35:37.978Z,74.72
2019-02-18T04:36:15.676Z,72.32
2019-02-18T04:36:53.585Z,73.28
2019-02-18T04:37:31.590Z,71.55
2019-02-18T04:38:09.416Z,79.32
2019-02-18T04:38:54.197Z,72.87
2019-02-18T04:39:26.776Z,68.17
2019-02-18T04:40:04.510Z,74.40
2019-02-18T04:40:43.652Z,73.80
2019-02-18T04:41:21.343Z,67.70
2019-02-18T04:41:59.136Z,76.15
2019-02-18T04:42:37.520Z,74.27
2019-02-18T04:43:15.477Z,68.45
2019-02-18T04:43:52.864Z,75.75
2019-02-18T04:44:33.244Z,85.17
2019-02-18T04:45:10.756Z,80.65
2019-02-18T04:45:48.397Z,77.25
2019-02-18T04:46:25.881Z,70.17
2019-02-18T04:47:03.329Z,70.55
2019-02-18T04:47:41.012Z,71.35
2019-02-18T04:48:18.584Z,69.70
2019-02-18T04:48:55.970Z,77.85
2019-02-18T04:49:33.660Z,69.85
2019-02-18T04:50:12.013Z,78.80
2019-02-18T04:50:49.996Z,70.37
2019-02-18T04:51:27.873Z,72.03
2019-02-18T04:52:07.382Z,75.50
2019-02-18T04:52:45.149Z,63.17
2019-02-18T04:53:22.650Z,68.22
2019-02-18T04:54:00.720Z,74.60
2019-02-18T04:54:38.522Z,75.72
2019-02-18T04:55:16.543Z,71.95
2019-02-18T04:55:54.206Z,81.12
2019-02-18T04:56:32.188Z,74.80
2019-02-18T04:57:09.742Z,73.20
2019-02-18T04:57:47.578Z,78.20
2019-02-18T04:58:25.206Z,71.97
2019-02-18T04:59:02.615Z,73.92
2019-02-18T04:59:40.617Z,70.03
2019-02-18T05:00:18.420Z,78.57
2019-02-18T05:00:57.700Z,69.90
2019-02-18T05:01:35.004Z,75.30
2019-02-18T05:02:12.568Z,74.60
2019-02-18T05:02:50.516Z,72.92
2019-02-18T05:03:28.220Z,77.40
2019-02-18T05:04:05.272Z,81.47
2019-02-18T05:04:43.081Z,74.32
2019-02-18T05:05:20.515Z,73.78
2019-02-18T05:05:58.158Z,76.50
2019-02-18T05:06:36.131Z,69.27
2019-02-18T05:07:13.548Z,75.65
2019-02-18T05:07:51.990Z,73.37
2019-02-18T05:08:29.792Z,77.50
2019-02-18T05:09:08.225Z,78.20
2019-02-18T05:09:46.216Z,75.00
2019-02-18T05:10:23.968Z,75.28
2019-02-18T05:11:01.890Z,78.22
2019-02-18T05:11:41.872Z,81.32
2019-02-18T05:12:19.231Z,80.20
2019-02-18T05:12:56.928Z,79.80
2019-02-18T05:13:34.870Z,69.22
2019-02-18T05:14:12.950Z,75.42
2019-02-18T05:14:50.416Z,78.10
2019-02-18T05:15:28.356Z,75.10
2019-02-18T05:16:06.318Z,84.47
2019-02-18T05:16:44.284Z,81.63
2019-02-18T05:17:22.337Z,79.42
2019-02-18T05:17:59.856Z,77.55
2019-02-18T05:18:36.855Z,74.47
2019-02-18T05:19:13.974Z,79.17
2019-02-18T05:19:57.824Z,72.58
2019-02-18T05:20:35.201Z,73.92
2019-02-18T05:21:13.042Z,69.70
2019-02-18T05:21:51.176Z,72.78
2019-02-18T05:22:48.122Z,80.25
2019-02-18T05:23:25.590Z,72.05
2019-02-18T05:24:03.222Z,73.15
2019-02-18T05:24:40.756Z,70.00
2019-02-18T05:25:18.236Z,79.22
2019-02-18T05:25:56.319Z,74.85
2019-02-18T05:26:33.922Z,74.82
2019-02-18T05:27:11.860Z,73.07
2019-02-18T05:27:49.600Z,73.57
2019-02-18T05:28:27.464Z,84.75
2019-02-18T05:29:05.080Z,73.60
2019-02-18T05:29:42.627Z,76.17
2019-02-18T05:30:20.664Z,73.37
2019-02-18T05:30:58.099Z,77.75
2019-02-18T05:31:36.233Z,75.70
2019-02-18T05:32:14.296Z,76.90
2019-02-18T05:32:51.773Z,75.05
2019-02-18T05:33:29.900Z,78.97
2019-02-18T05:34:07.280Z,71.97
2019-02-18T05:34:44.917Z,77.00
2019-02-18T05:35:22.739Z,81.67
2019-02-18T05:36:00.687Z,76.17
2019-02-18T05:36:38.117Z,73.92
2019-02-18T05:37:15.244Z,75.55
2019-02-18T05:37:53.024Z,77.13
2019-02-18T05:38:31.050Z,81.42
2019-02-18T05:39:17.917Z,68.45
2019-02-18T05:39:49.544Z,71.65
2019-02-18T05:40:27.169Z,69.72
2019-02-18T05:41:05.289Z,77.42
2019-02-18T05:41:43.341Z,77.27
2019-02-18T05:42:20.950Z,79.42
2019-02-18T05:42:58.622Z,78.37
2019-02-18T05:43:36.385Z,76.25
2019-02-18T05:44:14.164Z,70.17
2019-02-18T05:44:51.554Z,77.12
2019-02-18T05:45:29.772Z,72.20
2019-02-18T05:46:08.688Z,73.75
2019-02-18T05:46:46.846Z,74.35
2019-02-18T05:47:24.644Z,69.85
2019-02-18T05:48:02.577Z,74.17
2019-02-18T05:48:40.238Z,74.87
2019-02-18T05:49:17.675Z,68.25
2019-02-18T05:49:55.848Z,70.57
2019-02-18T05:50:33.970Z,71.30
2019-02-18T05:51:11.310Z,73.57
2019-02-18T05:51:49.233Z,70.47
2019-02-18T05:52:27.528Z,71.45
2019-02-18T05:53:05.325Z,73.90
2019-02-18T05:53:43.137Z,74.45
2019-02-18T05:54:21.142Z,66.42
2019-02-18T05:54:58.532Z,74.97
2019-02-18T05:55:36.133Z,77.62
2019-02-18T05:56:13.257Z,70.00
2019-02-18T05:56:51.107Z,71.67
2019-02-18T05:57:28.744Z,70.47
2019-02-18T05:58:06.765Z,74.62
2019-02-18T05:58:46.882Z,68.20
2019-02-18T05:59:24.636Z,70.57
2019-02-18T06:00:02.118Z,64.95
2019-02-18T06:00:41.843Z,68.07
2019-02-18T06:01:20.327Z,65.52
2019-02-18T06:01:57.759Z,74.45
2019-02-18T06:02:35.792Z,68.75
2019-02-18T06:03:13.553Z,74.95
2019-02-18T06:03:51.677Z,73.22
2019-02-18T06:04:29.740Z,67.82
2019-02-18T06:05:08.007Z,71.82
2019-02-18T06:05:45.364Z,70.90
2019-02-18T06:06:23.520Z,71.62
2019-02-18T06:07:01.321Z,71.97
2019-02-18T06:07:39.303Z,73.45
2019-02-18T06:08:17.101Z,73.50
2019-02-18T06:08:54.566Z,65.05
2019-02-18T06:09:32.265Z,66.60
2019-02-18T06:10:10.033Z,65.28
2019-02-18T06:10:48.067Z,71.07
2019-02-18T06:11:25.516Z,72.32
2019-02-18T06:12:03.576Z,73.65
2019-02-18T06:12:41.720Z,69.37
2019-02-18T06:13:19.816Z,74.90
2019-02-18T06:13:57.741Z,74.95
2019-02-18T06:14:35.485Z,75.50
2019-02-18T06:15:13.309Z,75.80
2019-02-18T06:15:51.317Z,70.20
2019-02-18T06:16:28.654Z,90.62
2019-02-18T06:17:07.544Z,74.77
2019-02-18T06:17:45.229Z,71.67
2019-02-18T06:18:22.945Z,69.77
2019-02-18T06:19:00.586Z,67.58
2019-02-18T06:19:38.485Z,70.47
2019-02-18T06:20:18.559Z,83.05
2019-02-18T06:20:57.334Z,73.92
2019-02-18T06:21:37.052Z,72.22
2019-02-18T06:22:14.690Z,70.10
2019-02-18T06:22:52.136Z,73.65
2019-02-18T06:23:29.834Z,69.62
2019-02-18T06:24:07.495Z,74.92
2019-02-18T06:24:44.975Z,74.75
2019-02-18T06:25:23.044Z,77.58
2019-02-18T06:26:00.654Z,77.55
2019-02-18T06:26:38.428Z,67.03
2019-02-18T06:27:17.857Z,75.22
2019-02-18T06:27:55.345Z,76.15
2019-02-18T06:28:33.118Z,70.47
2019-02-18T06:29:10.837Z,63.28
2019-02-18T06:29:48.591Z,74.58
2019-02-18T06:30:26.303Z,67.92
2019-02-18T06:31:04.059Z,66.00
2019-02-18T06:31:41.844Z,74.35
2019-02-18T06:32:19.805Z,71.00
2019-02-18T06:32:57.527Z,72.00
2019-02-18T06:33:35.233Z,78.75
2019-02-18T06:34:12.804Z,76.22
2019-02-18T06:34:52.527Z,67.80
2019-02-18T06:35:30.207Z,69.90
2019-02-18T06:36:07.690Z,71.85
2019-02-18T06:36:45.057Z,73.97
2019-02-18T06:37:22.632Z,66.00
2019-02-18T06:38:00.111Z,77.40
2019-02-18T06:38:37.831Z,78.85
2019-02-18T06:39:15.826Z,77.08
2019-02-18T06:39:53.487Z,73.00
2019-02-18T06:40:31.249Z,70.65
2019-02-18T06:41:08.841Z,73.80
2019-02-18T06:41:46.261Z,72.78
2019-02-18T06:42:24.054Z,68.47
2019-02-18T06:43:01.171Z,68.52
2019-02-18T06:43:39.171Z,70.32
2019-02-18T06:44:18.892Z,63.25
2019-02-18T06:45:02.823Z,71.28
2019-02-18T06:45:50.673Z,70.90
2019-02-18T06:46:33.440Z,68.95
2019-02-18T06:47:14.222Z,63.35
2019-02-18T06:47:53.371Z,66.62
2019-02-18T06:48:34.473Z,65.95
2019-02-18T06:49:14.631Z,60.58
2019-02-18T06:49:52.773Z,66.40
2019-02-18T06:50:30.935Z,69.00
2019-02-18T06:51:08.861Z,63.98
2019-02-18T06:51:48.742Z,68.10
2019-02-18T06:52:28.029Z,63.45
2019-02-18T06:53:05.869Z,73.62
2019-02-18T06:53:43.587Z,69.20
2019-02-18T06:54:22.405Z,68.60
2019-02-18T06:55:00.288Z,64.50
2019-02-18T06:55:37.705Z,64.58
2019-02-18T06:56:17.261Z,63.28
2019-02-18T06:57:13.761Z,64.30
2019-02-18T06:58:04.417Z,67.82
2019-02-18T06:58:53.908Z,60.90
2019-02-18T06:59:41.013Z,60.85
2019-02-18T07:00:24.497Z,66.10
2019-02-18T07:01:06.295Z,63.75
2019-02-18T07:01:56.073Z,57.38
2019-02-18T07:02:47.889Z,63.90
2019-02-18T07:03:30.133Z,64.60
2019-02-18T07:04:35.817Z,62.10
2019-02-18T07:05:19.682Z,63.52
2019-02-18T07:06:23.343Z,68.62
2019-02-18T07:07:35.123Z,61.80
2019-02-18T07:08:20.585Z,58.45
2019-02-18T07:09:08.305Z,63.45
2019-02-18T07:10:07.498Z,60.17
2019-02-18T07:11:04.019Z,63.42
2019-02-18T07:11:49.375Z,61.48
2019-02-18T07:12:29.827Z,69.05
2019-02-18T07:13:07.489Z,63.55
2019-02-18T07:13:48.907Z,58.85
2019-02-18T07:14:26.597Z,59.23
2019-02-18T07:15:04.432Z,67.72
2019-02-18T07:15:42.037Z,64.20
2019-02-18T07:16:19.851Z,64.58
2019-02-18T07:16:57.253Z,67.35
2019-02-18T07:17:35.018Z,63.30
2019-02-18T07:18:12.684Z,61.13
2019-02-18T07:18:50.387Z,59.77
2019-02-18T07:19:28.324Z,57.60
2019-02-18T07:20:06.559Z,67.08
2019-02-18T07:20:44.253Z,58.00
2019-02-18T07:21:21.967Z,66.15
2019-02-18T07:21:59.384Z,62.58
2019-02-18T07:22:37.199Z,61.00
2019-02-18T07:23:14.643Z,58.38
2019-02-18T07:23:52.240Z,62.20
2019-02-18T07:24:30.043Z,53.83
2019-02-18T07:25:08.990Z,56.15
2019-02-18T07:25:46.509Z,61.30
2019-02-18T07:26:26.785Z,62.40
2019-02-18T07:27:04.798Z,62.67
2019-02-18T07:27:42.543Z,56.37
2019-02-18T07:28:19.964Z,60.05
2019-02-18T07:28:56.982Z,58.87
2019-02-18T07:29:34.726Z,63.02
2019-02-18T07:30:14.901Z,60.58
2019-02-18T07:30:52.613Z,61.55
2019-02-18T07:31:30.674Z,60.12
2019-02-18T07:32:08.595Z,55.30
2019-02-18T07:32:46.456Z,56.45
2019-02-18T07:33:26.493Z,54.63
2019-02-18T07:34:03.967Z,58.05
2019-02-18T07:34:41.679Z,55.90
2019-02-18T07:35:19.879Z,58.83
2019-02-18T07:35:57.507Z,59.75
2019-02-18T07:36:35.549Z,59.70
2019-02-18T07:37:13.382Z,59.05
2019-02-18T07:37:50.892Z,56.33
2019-02-18T07:38:28.610Z,56.05
2019-02-18T07:39:08.106Z,60.23
2019-02-18T07:39:45.585Z,61.42
2019-02-18T07:40:22.965Z,54.10
2019-02-18T07:41:00.965Z,56.40
2019-02-18T07:41:38.324Z,58.20
2019-02-18T07:42:16.031Z,60.65
2019-02-18T07:42:53.483Z,54.38
2019-02-18T07:43:31.175Z,52.85
2019-02-18T07:44:08.271Z,63.87
2019-02-18T07:44:45.920Z,62.73
2019-02-18T07:45:23.519Z,56.23
2019-02-18T07:46:00.622Z,56.18
2019-02-18T07:46:38.150Z,54.67
2019-02-18T07:47:15.171Z,59.60
2019-02-18T07:47:53.420Z,59.53
2019-02-18T07:48:30.565Z,58.28
2019-02-18T07:49:08.510Z,58.87
2019-02-18T07:49:46.192Z,55.23
2019-02-18T07:50:23.924Z,59.95
2019-02-18T07:51:01.544Z,52.03
2019-02-18T07:51:39.597Z,55.52
2019-02-18T07:52:17.541Z,51.85
2019-02-18T07:52:55.607Z,56.15
2019-02-18T07:53:34.623Z,55.25
2019-02-18T07:54:12.406Z,57.65
2019-02-18T07:54:50.454Z,53.42
2019-02-18T07:55:27.926Z,53.63
2019-02-18T07:56:07.302Z,55.95
2019-02-18T07:56:45.292Z,53.48
2019-02-18T07:57:23.206Z,57.27
2019-02-18T07:58:00.997Z,52.90
2019-02-18T07:58:38.643Z,53.13
2019-02-18T07:59:16.653Z,51.23
2019-02-18T07:59:54.234Z,54.60
2019-02-18T08:00:32.244Z,52.70
2019-02-18T08:01:10.215Z,51.88
2019-02-18T08:01:47.931Z,54.98
2019-02-18T08:02:25.209Z,56.35
2019-02-18T08:03:02.861Z,57.48
2019-02-18T08:03:43.187Z,54.55
2019-02-18T08:04:20.871Z,59.00
2019-02-18T08:05:02.161Z,56.35
2019-02-18T08:05:38.620Z,57.50
2019-02-18T08:06:18.031Z,53.28
2019-02-18T08:06:55.365Z,55.73
2019-02-18T08:07:33.103Z,58.05
2019-02-18T08:08:10.788Z,53.35
2019-02-18T08:08:48.765Z,51.53
2019-02-18T08:09:25.773Z,49.05
2019-02-18T08:10:11.685Z,51.58
2019-02-18T08:10:42.515Z,53.85
2019-02-18T08:11:20.235Z,52.85
2019-02-18T08:11:58.214Z,50.25
2019-02-18T08:12:35.371Z,51.33
2019-02-18T08:13:13.080Z,54.10
2019-02-18T08:13:50.536Z,54.85
2019-02-18T08:14:28.009Z,55.25
2019-02-18T08:15:05.849Z,52.03
2019-02-18T08:15:43.277Z,44.70